Time;durP1;ratioP1;P1;durP2;ratioP2;P2;SDS_P1;SDS_P2;PMS_P1;PMS_P2;Temp;Humidity;BMP_temperature;BMP_pressure;BME280_temperature;BME280_humidity;BME280_pressure;Samples;Min_cycle;Max_cycle;Signal;HPM_P1;HPM_P2
2022/07/10 00:01:54;;;;;;;15.68;9.80;;;12.50;99.90;;;;;;10075633;29;20398;-87
2022/07/10 00:06:55;;;;;;;16.15;9.32;;;12.40;99.90;;;;;;10088889;29;20402;-87
2022/07/10 00:11:56;;;;;;;19.30;9.90;;;12.30;99.90;;;;;;10015457;29;20034;-87
2022/07/10 00:16:56;;;;;;;15.07;8.68;;;12.20;99.90;;;;;;10030302;29;20041;-86
2022/07/10 00:21:57;;;;;;;15.05;9.32;;;12.10;99.90;;;;;;10008666;29;20030;-87
2022/07/10 00:26:58;;;;;;;15.32;9.35;;;12.10;99.90;;;;;;10004849;29;20104;-87
2022/07/10 00:31:59;;;;;;;16.65;9.75;;;12.10;99.90;;;;;;10016245;29;20054;-87
2022/07/10 00:36:59;;;;;;;14.70;8.65;;;12.10;99.90;;;;;;10018248;29;20033;-88
2022/07/10 00:42:13;;;;;;;16.75;9.70;;;12.20;99.90;;;;;;10023432;29;20044;-87
2022/07/10 00:47:17;;;;;;;16.92;9.95;;;12.30;99.90;;;;;;10023733;29;20550;-86
2022/07/10 00:52:19;;;;;;;14.98;9.50;;;12.50;99.90;;;;;;10016595;29;20037;-87
2022/07/10 00:57:21;;;;;;;17.55;10.50;;;12.70;99.90;;;;;;10030897;29;20033;-87
2022/07/10 01:02:22;;;;;;;15.05;9.30;;;12.80;99.90;;;;;;10006093;29;20037;-86
2022/07/10 01:07:23;;;;;;;16.33;8.63;;;12.90;99.90;;;;;;10024762;29;20064;-88
2022/07/10 01:12:23;;;;;;;15.18;9.40;;;13.00;99.90;;;;;;10002941;29;20033;-87
2022/07/10 01:17:25;;;;;;;14.60;9.45;;;13.10;99.90;;;;;;10039889;29;20499;-87
2022/07/10 01:22:25;;;;;;;23.75;12.90;;;13.20;99.90;;;;;;10008073;29;20029;-87
2022/07/10 01:27:27;;;;;;;20.80;10.65;;;13.20;99.90;;;;;;10021879;29;20065;-88
2022/07/10 01:32:37;;;;;;;22.73;12.25;;;13.30;99.90;;;;;;10031418;29;20038;-88
2022/07/10 01:37:39;;;;;;;14.98;9.50;;;13.30;99.90;;;;;;10014814;29;20021;-87
2022/07/10 01:42:40;;;;;;;15.45;9.40;;;13.40;99.90;;;;;;10014938;29;20090;-87
2022/07/10 01:47:40;;;;;;;13.00;8.65;;;13.60;99.90;;;;;;10034106;29;20042;-87
2022/07/10 01:52:41;;;;;;;13.30;8.57;;;13.70;99.90;;;;;;10046204;29;20038;-88
2022/07/10 01:57:42;;;;;;;12.02;8.52;;;13.80;99.90;;;;;;10006439;29;20177;-87
2022/07/10 02:04:40;;;;;;;14.23;8.30;;;13.80;99.90;;;;;;10021490;29;20422;-88
2022/07/10 02:08:03;;;;;;;13.18;8.27;;;13.90;99.90;;;;;;10023926;29;20106;-87
2022/07/10 02:13:04;;;;;;;12.27;8.40;;;13.90;99.90;;;;;;10017883;29;20162;-87
2022/07/10 02:18:04;;;;;;;13.98;8.23;;;13.90;99.90;;;;;;10011789;29;20179;-87
2022/07/10 02:23:06;;;;;;;13.70;9.13;;;14.00;99.90;;;;;;10026090;29;20036;-87
2022/07/10 02:28:08;;;;;;;13.98;8.18;;;14.00;99.90;;;;;;10004488;29;20422;-87
2022/07/10 02:33:09;;;;;;;14.27;8.48;;;14.00;99.90;;;;;;10013797;29;20033;-87
2022/07/10 02:38:09;;;;;;;16.77;8.88;;;14.00;99.90;;;;;;10021651;29;20049;-88
2022/07/10 02:43:10;;;;;;;14.88;8.50;;;14.00;99.90;;;;;;10005152;29;20045;-87
2022/07/10 02:48:11;;;;;;;11.05;7.90;;;14.00;99.90;;;;;;10018426;29;20052;-87
2022/07/10 02:53:11;;;;;;;13.60;7.70;;;14.00;99.90;;;;;;10013896;29;20059;-87
2022/07/10 02:58:12;;;;;;;11.80;7.60;;;14.00;99.90;;;;;;10029643;29;20980;-87
2022/07/10 03:03:12;;;;;;;12.68;7.57;;;14.00;99.90;;;;;;10026149;29;20044;-86
2022/07/10 03:08:13;;;;;;;10.52;7.38;;;14.00;99.90;;;;;;10032941;29;20042;-88
2022/07/10 03:13:14;;;;;;;11.85;6.95;;;14.00;99.90;;;;;;10021059;29;20033;-87
2022/07/10 03:18:14;;;;;;;10.63;7.20;;;14.00;99.90;;;;;;10011336;29;20037;-88
2022/07/10 03:23:15;;;;;;;9.95;7.53;;;14.10;99.90;;;;;;10011424;29;20182;-87
2022/07/10 03:28:15;;;;;;;9.35;6.88;;;14.10;99.90;;;;;;10014456;29;20066;-87
2022/07/10 03:33:16;;;;;;;9.30;6.70;;;14.10;99.90;;;;;;10007577;29;20033;-87
2022/07/10 03:38:16;;;;;;;10.63;6.43;;;14.20;99.90;;;;;;10021292;29;20033;-87
2022/07/10 03:43:17;;;;;;;15.30;6.32;;;14.20;99.90;;;;;;10021692;29;20089;-87
2022/07/10 03:48:18;;;;;;;9.05;5.97;;;14.30;99.90;;;;;;10030626;29;20130;-87
2022/07/10 03:53:19;;;;;;;8.80;5.90;;;14.30;99.90;;;;;;10020641;29;20557;-87
2022/07/10 03:58:20;;;;;;;8.15;5.53;;;14.30;99.90;;;;;;10010519;29;20494;-87
2022/07/10 04:03:21;;;;;;;9.48;5.00;;;14.20;99.90;;;;;;10119213;23;20517;-87
2022/07/10 04:08:21;;;;;;;7.32;4.95;;;14.10;99.90;;;;;;10125214;29;20032;-87
2022/07/10 04:13:22;;;;;;;9.70;5.82;;;14.20;99.90;;;;;;10106357;29;20036;-86
2022/07/10 04:18:22;;;;;;;7.63;5.43;;;14.20;99.90;;;;;;10124689;29;20036;-86
2022/07/10 04:23:23;;;;;;;7.85;5.50;;;14.20;99.90;;;;;;10120359;29;20100;-86
2022/07/10 04:28:23;;;;;;;6.93;5.50;;;14.30;99.90;;;;;;10125708;29;20499;-87
2022/07/10 04:33:26;;;;;;;10.95;6.45;;;14.30;99.90;;;;;;10116581;29;20477;-89
2022/07/10 04:38:26;;;;;;;6.28;4.88;;;14.60;99.90;;;;;;10122014;29;20032;-89
2022/07/10 04:43:29;;;;;;;7.53;6.10;;;14.60;99.90;;;;;;10106719;29;20028;-89
2022/07/10 04:48:30;;;;;;;8.18;6.25;;;14.60;99.90;;;;;;10108163;29;20033;-88
2022/07/10 04:53:31;;;;;;;9.45;5.68;;;14.60;99.90;;;;;;10104321;29;20021;-86
2022/07/10 04:58:31;;;;;;;9.10;6.45;;;14.70;99.90;;;;;;10122946;29;20567;-89
2022/07/10 05:03:32;;;;;;;9.77;5.88;;;14.70;99.90;;;;;;10103077;29;20466;-88
2022/07/10 05:08:32;;;;;;;7.15;6.05;;;14.50;99.90;;;;;;10113172;29;20063;-88
2022/07/10 05:13:33;;;;;;;8.20;5.22;;;14.50;99.90;;;;;;10124851;29;20063;-84
2022/07/10 05:18:34;;;;;;;6.70;4.10;;;14.80;99.90;;;;;;10129242;29;20037;-89
2022/07/10 05:23:35;;;;;;;6.50;4.30;;;15.10;99.90;;;;;;10130211;29;20044;-89
2022/07/10 05:28:36;;;;;;;6.60;4.82;;;15.00;99.90;;;;;;10101501;29;20043;-88
2022/07/10 05:33:38;;;;;;;6.72;5.38;;;15.10;99.90;;;;;;10109969;29;20032;-91
2022/07/10 05:38:56;;;;;;;9.30;4.97;;;15.30;99.90;;;;;;10114684;29;20017;-89
2022/07/10 05:44:00;;;;;;;5.93;3.90;;;15.40;99.90;;;;;;10114011;29;20195;-88
2022/07/10 05:49:06;;;;;;;5.70;3.80;;;15.20;99.90;;;;;;10109354;29;20044;-88
2022/07/10 05:54:07;;;;;;;5.72;2.97;;;15.10;99.90;;;;;;10108737;29;20701;-89
2022/07/10 05:59:13;;;;;;;3.90;3.00;;;15.00;99.90;;;;;;10113146;29;20124;-90
2022/07/10 06:04:15;;;;;;;3.40;2.53;;;14.90;99.90;;;;;;10127410;29;20067;-88
2022/07/10 06:09:16;;;;;;;2.40;2.17;;;15.00;99.90;;;;;;10112123;29;20035;-87
2022/07/10 06:14:16;;;;;;;3.78;2.15;;;15.60;99.90;;;;;;10113361;29;20362;-89
2022/07/10 06:19:41;;;;;;;2.88;2.17;;;15.80;99.90;;;;;;10113929;29;20035;-94
2022/07/10 06:24:41;;;;;;;2.20;1.85;;;15.70;99.90;;;;;;10098911;29;20512;-88
2022/07/10 06:29:42;;;;;;;6.15;1.83;;;15.50;99.90;;;;;;10100692;29;20119;-84
2022/07/10 06:34:43;;;;;;;2.58;1.65;;;15.40;99.90;;;;;;10127887;29;20036;-86
2022/07/10 06:40:23;;;;;;;3.28;1.80;;;15.30;99.90;;;;;;10106178;29;20025;-87
2022/07/10 06:45:24;;;;;;;3.55;2.17;;;15.50;99.90;;;;;;10122238;29;20388;-86
2022/07/10 06:50:29;;;;;;;4.32;1.92;;;15.80;99.90;;;;;;10125823;29;20115;-87
2022/07/10 06:55:30;;;;;;;2.90;1.20;;;16.30;99.90;;;;;;10109457;29;20033;-88
2022/07/10 07:06:58;;;;;;;4.57;1.48;;;17.80;99.70;;;;;;10124910;29;20041;-87
2022/07/10 07:11:58;;;;;;;4.43;1.55;;;17.20;98.10;;;;;;10105134;29;20064;-87
2022/07/10 07:17:10;;;;;;;2.20;1.40;;;17.10;98.10;;;;;;10109078;29;20039;-87
2022/07/10 07:27:47;;;;;;;2.58;1.63;;;16.70;98.60;;;;;;9977021;29;20050;-88
2022/07/10 07:32:48;;;;;;;5.00;1.60;;;16.70;99.90;;;;;;9965178;29;20045;-88
2022/07/10 07:49:25;;;;;;;4.05;1.63;;;16.70;94.50;;;;;;10072697;29;20045;-88
2022/07/10 07:54:25;;;;;;;7.78;2.10;;;16.60;94.80;;;;;;10128917;29;20045;-88
2022/07/10 07:59:50;;;;;;;3.65;1.90;;;16.50;94.60;;;;;;10103546;29;20109;-87
2022/07/10 08:05:18;;;;;;;4.00;1.52;;;16.50;95.40;;;;;;10118689;29;20056;-88
2022/07/10 08:10:21;;;;;;;3.60;1.73;;;16.70;95.00;;;;;;10106051;29;20037;-89
2022/07/10 08:15:22;;;;;;;2.90;1.00;;;16.60;94.30;;;;;;10108001;29;20024;-87
2022/07/10 08:20:25;;;;;;;3.58;1.10;;;16.70;93.30;;;;;;10107587;29;20032;-90
2022/07/10 08:25:27;;;;;;;4.68;2.03;;;17.10;94.20;;;;;;10108053;29;20742;-92
2022/07/10 08:30:28;;;;;;;4.00;1.67;;;17.20;93.80;;;;;;10107501;29;20095;-90
2022/07/10 08:35:30;;;;;;;2.95;1.13;;;16.90;92.50;;;;;;10107379;29;20481;-89
2022/07/10 08:40:38;;;;;;;3.08;1.20;;;16.80;93.30;;;;;;10104453;29;20032;-92
2022/07/10 08:45:40;;;;;;;4.60;1.45;;;16.80;94.20;;;;;;10103925;29;20530;-88
2022/07/10 08:50:47;;;;;;;7.88;1.58;;;16.80;94.00;;;;;;10115287;29;20556;-87
2022/07/10 09:01:53;;;;;;;4.80;1.63;;;16.70;92.70;;;;;;10590423;23;20067;-86
2022/07/10 09:06:55;;;;;;;3.23;1.13;;;16.80;92.80;;;;;;10122312;29;20036;-88
2022/07/10 09:11:57;;;;;;;4.70;1.15;;;16.90;91.80;;;;;;10115040;29;20462;-87
2022/07/10 09:16:58;;;;;;;1.65;1.00;;;17.00;91.30;;;;;;10071738;29;20403;-86
2022/07/10 09:22:14;;;;;;;2.65;1.33;;;17.10;90.50;;;;;;10063168;29;20088;-90
2022/07/10 09:27:16;;;;;;;5.50;0.95;;;17.50;90.10;;;;;;10073095;29;20080;-90
2022/07/10 09:32:19;;;;;;;2.78;0.88;;;17.80;87.60;;;;;;10100275;29;20362;-90
2022/07/10 09:37:28;;;;;;;4.38;1.35;;;18.00;86.70;;;;;;10057844;29;20041;-88
2022/07/10 09:42:39;;;;;;;6.00;0.90;;;18.50;88.30;;;;;;10073943;29;20032;-87
2022/07/10 09:48:04;;;;;;;2.08;0.85;;;19.00;85.50;;;;;;10094768;29;20044;-85
2022/07/10 09:53:07;;;;;;;7.80;1.35;;;18.90;82.90;;;;;;10090206;29;20036;-86
2022/07/10 09:58:09;;;;;;;4.65;1.13;;;18.70;81.60;;;;;;10089764;29;20036;-89
2022/07/10 10:03:11;;;;;;;5.53;1.48;;;18.40;83.90;;;;;;10093625;29;20056;-88
2022/07/10 10:08:19;;;;;;;4.32;0.80;;;18.30;83.00;;;;;;10084403;29;20101;-85
2022/07/10 10:13:27;;;;;;;2.88;0.93;;;18.00;85.00;;;;;;10099084;29;20043;-86
2022/07/10 10:18:29;;;;;;;6.88;1.00;;;17.90;84.70;;;;;;10092388;29;20182;-85
2022/07/10 10:23:31;;;;;;;2.90;0.70;;;17.70;86.00;;;;;;10119060;29;20032;-85
2022/07/10 10:28:33;;;;;;;4.47;0.88;;;17.70;85.10;;;;;;10102824;29;20485;-87
2022/07/10 10:33:34;;;;;;;2.15;0.90;;;17.70;84.50;;;;;;10104845;29;20136;-88
2022/07/10 10:38:55;;;;;;;4.55;1.10;;;17.70;84.80;;;;;;10094524;29;20049;-86
2022/07/10 10:44:16;;;;;;;4.32;1.13;;;18.10;86.40;;;;;;10093729;29;20040;-90
2022/07/10 10:49:20;;;;;;;4.75;1.17;;;19.00;85.20;;;;;;10113134;29;20055;-84
2022/07/10 10:54:21;;;;;;;2.78;1.30;;;19.50;82.90;;;;;;10072998;29;20691;-84
2022/07/10 10:59:44;;;;;;;5.32;1.23;;;20.00;83.60;;;;;;10110767;29;20037;-86
2022/07/10 11:04:44;;;;;;;3.00;1.00;;;20.30;81.90;;;;;;10083712;29;20160;-84
2022/07/10 11:09:45;;;;;;;3.90;1.10;;;19.70;79.00;;;;;;10110744;29;20124;-86
2022/07/10 11:14:49;;;;;;;3.40;1.55;;;18.90;80.50;;;;;;10087695;29;20040;-87
2022/07/10 11:19:53;;;;;;;2.65;1.00;;;17.90;82.80;;;;;;10090434;29;20040;-89
2022/07/10 11:25:18;;;;;;;2.90;0.90;;;17.20;82.90;;;;;;10059002;29;20041;-87
2022/07/10 11:30:19;;;;;;;3.33;1.25;;;16.50;84.30;;;;;;10076360;29;20101;-89
2022/07/10 11:35:21;;;;;;;4.40;1.10;;;16.20;86.20;;;;;;10070616;29;20048;-87
2022/07/10 11:40:21;;;;;;;2.13;1.00;;;16.10;89.20;;;;;;10097297;29;20047;-90
2022/07/10 11:45:30;;;;;;;2.75;0.90;;;16.50;90.00;;;;;;10084423;29;20401;-91
2022/07/10 11:50:37;;;;;;;3.42;1.15;;;16.80;85.70;;;;;;10091515;29;20040;-88
2022/07/10 11:55:40;;;;;;;1.75;1.30;;;17.20;83.20;;;;;;10080217;29;20072;-89
2022/07/10 12:00:41;;;;;;;4.10;1.75;;;17.40;82.10;;;;;;10072251;29;20057;-91
2022/07/10 12:06:04;;;;;;;3.60;1.08;;;17.50;82.20;;;;;;10080250;29;20503;-89
2022/07/10 12:11:12;;;;;;;3.15;0.98;;;17.90;80.50;;;;;;10064627;29;20473;-88
2022/07/10 12:16:17;;;;;;;1.67;0.63;;;18.10;79.20;;;;;;10098850;29;20425;-91
2022/07/10 12:21:18;;;;;;;2.33;0.87;;;18.40;78.60;;;;;;10079337;29;20043;-91
2022/07/10 12:26:42;;;;;;;1.42;0.50;;;18.80;75.20;;;;;;10070049;29;20041;-87
2022/07/10 12:37:52;;;;;;;0.90;0.55;;;19.00;75.10;;;;;;10049128;29;20037;-89
2022/07/10 12:43:01;;;;;;;2.15;0.60;;;18.90;75.70;;;;;;10076510;29;20033;-85
2022/07/10 12:48:48;;;;;;;1.77;0.60;;;19.00;77.90;;;;;;10076737;29;20117;-90
2022/07/10 12:53:49;;;;;;;3.17;0.70;;;19.10;77.20;;;;;;10087003;29;20060;-89
2022/07/10 12:58:49;;;;;;;1.20;0.80;;;18.90;78.00;;;;;;10063370;29;20680;-87
2022/07/10 13:03:58;;;;;;;3.55;0.80;;;18.60;81.00;;;;;;10065708;29;20521;-85
2022/07/10 13:08:59;;;;;;;3.50;0.90;;;19.10;81.70;;;;;;10080878;29;20476;-91
2022/07/10 13:14:02;;;;;;;2.28;0.88;;;19.30;78.20;;;;;;10068015;29;20037;-86
2022/07/10 13:19:03;;;;;;;2.47;1.13;;;19.20;78.90;;;;;;10094055;29;20569;-88
2022/07/10 13:24:07;;;;;;;3.15;1.00;;;19.20;79.30;;;;;;10069971;29;20081;-88
2022/07/10 13:29:21;;;;;;;3.00;0.90;;;18.90;79.50;;;;;;10070866;29;20049;-85
2022/07/10 13:34:23;;;;;;;1.80;0.50;;;18.90;81.40;;;;;;10095512;29;20081;-86
2022/07/10 13:39:24;;;;;;;2.42;0.95;;;19.30;77.60;;;;;;10078991;29;20502;-87
2022/07/10 13:44:25;;;;;;;1.77;0.95;;;19.00;76.20;;;;;;10085452;29;20040;-87
2022/07/10 13:49:27;;;;;;;1.90;0.90;;;18.80;76.90;;;;;;10080082;29;20051;-87
2022/07/10 13:54:35;;;;;;;1.45;0.68;;;19.40;80.70;;;;;;10089410;29;20043;-87
2022/07/10 13:59:36;;;;;;;7.47;1.00;;;20.20;75.40;;;;;;10074411;29;20393;-86
2022/07/10 14:04:36;;;;;;;0.85;0.57;;;20.60;73.50;;;;;;10097176;29;20045;-86
2022/07/10 14:09:37;;;;;;;1.85;0.65;;;20.80;70.70;;;;;;10083404;29;20029;-87
2022/07/10 14:20:17;;;;;;;1.08;0.73;;;19.40;72.70;;;;;;10093395;29;20056;-88
2022/07/10 14:25:50;;;;;;;2.45;1.35;;;19.00;76.00;;;;;;10095334;29;20041;-88
2022/07/10 14:30:51;;;;;;;2.65;0.93;;;18.50;77.90;;;;;;10074463;29;20104;-89
2022/07/10 14:35:52;;;;;;;1.05;0.70;;;18.60;79.30;;;;;;10083334;29;20124;-85
2022/07/10 14:41:05;;;;;;;2.78;0.63;;;18.30;78.10;;;;;;10101939;29;20040;-86
2022/07/10 14:46:06;;;;;;;2.03;0.70;;;18.30;78.70;;;;;;10080579;29;20052;-86
2022/07/10 14:51:07;;;;;;;1.00;0.45;;;18.60;78.90;;;;;;10093774;29;20389;-87
2022/07/10 14:56:08;;;;;;;2.50;0.52;;;18.60;77.60;;;;;;10107564;29;20660;-87
2022/07/10 15:01:09;;;;;;;1.60;0.60;;;18.60;78.70;;;;;;10067002;29;20053;-86
2022/07/10 15:06:11;;;;;;;0.52;0.52;;;18.80;79.00;;;;;;10089134;29;20405;-89
2022/07/10 15:11:12;;;;;;;0.85;0.60;;;18.80;76.10;;;;;;10080054;29;20033;-85
2022/07/10 15:16:12;;;;;;;2.05;0.60;;;18.60;78.10;;;;;;10077915;29;20449;-87
2022/07/10 15:21:13;;;;;;;1.42;0.32;;;18.50;77.00;;;;;;10068024;29;20465;-86
2022/07/10 15:26:15;;;;;;;1.55;0.30;;;18.40;77.60;;;;;;10073586;29;20124;-85
2022/07/10 15:31:18;;;;;;;3.13;0.80;;;18.00;77.70;;;;;;10074935;29;20036;-88
2022/07/10 15:36:20;;;;;;;2.45;0.80;;;17.60;81.10;;;;;;10063210;29;20486;-88
2022/07/10 15:41:20;;;;;;;3.65;0.98;;;16.60;90.10;;;;;;10068224;29;20056;-87
2022/07/10 15:46:21;;;;;;;4.40;0.80;;;15.80;92.50;;;;;;10072016;29;20041;-87
2022/07/10 15:51:21;;;;;;;1.52;1.05;;;15.40;94.60;;;;;;10072900;29;20029;-88
2022/07/10 15:56:22;;;;;;;1.80;1.10;;;15.40;95.80;;;;;;10082993;29;20529;-90
2022/07/10 16:01:23;;;;;;;2.08;0.73;;;15.60;97.40;;;;;;10071863;29;20068;-86
2022/07/10 16:06:23;;;;;;;1.13;0.70;;;15.80;97.00;;;;;;10076264;29;20040;-86
2022/07/10 16:11:25;;;;;;;0.50;0.40;;;15.90;98.00;;;;;;10059370;29;20025;-86
2022/07/10 16:16:25;;;;;;;1.27;0.43;;;16.10;96.50;;;;;;10076535;29;20058;-87
2022/07/10 16:21:26;;;;;;;1.50;0.90;;;16.30;95.90;;;;;;10079555;29;20151;-87
2022/07/10 16:26:56;;;;;;;1.23;0.90;;;16.30;93.80;;;;;;10077039;29;20044;-88
2022/07/10 16:32:19;;;;;;;1.70;0.90;;;16.50;93.80;;;;;;10095775;29;20135;-89
2022/07/10 16:43:17;;;;;;;3.83;1.98;;;16.70;93.20;;;;;;10079969;29;20037;-87
2022/07/10 16:48:18;;;;;;;1.75;1.08;;;16.70;92.50;;;;;;10084044;29;20072;-88
2022/07/10 16:53:19;;;;;;;3.00;1.38;;;16.70;93.40;;;;;;10086079;29;20171;-88
2022/07/10 16:58:20;;;;;;;5.03;2.75;;;16.70;92.80;;;;;;10090878;29;20120;-90
2022/07/10 17:03:21;;;;;;;3.70;1.65;;;16.70;93.00;;;;;;10049709;29;20064;-87
2022/07/10 17:08:22;;;;;;;4.85;2.10;;;16.70;93.70;;;;;;10060816;29;20048;-87
2022/07/10 17:13:25;;;;;;;4.68;2.50;;;16.80;94.00;;;;;;10032988;29;20033;-87
2022/07/10 17:18:27;;;;;;;2.55;1.33;;;16.70;94.10;;;;;;10048721;29;20728;-88
2022/07/10 17:23:37;;;;;;;4.72;2.70;;;16.60;93.40;;;;;;10051683;29;20495;-88
2022/07/10 17:28:58;;;;;;;3.60;1.80;;;16.40;93.20;;;;;;10040265;29;20441;-90
2022/07/10 17:34:00;;;;;;;6.95;1.58;;;16.30;93.30;;;;;;10053165;29;20411;-88
2022/07/10 17:39:01;;;;;;;2.20;1.30;;;16.20;93.30;;;;;;10027732;29;20076;-86
2022/07/10 17:44:02;;;;;;;1.38;1.10;;;16.10;93.60;;;;;;10055248;29;20115;-85
2022/07/10 17:49:04;;;;;;;4.70;1.50;;;16.10;93.60;;;;;;10044703;29;20036;-86
2022/07/10 17:54:05;;;;;;;3.75;0.90;;;16.10;93.80;;;;;;10062478;29;20045;-86
2022/07/10 17:59:05;;;;;;;3.90;1.05;;;16.00;93.90;;;;;;10051246;29;20037;-88
2022/07/10 18:04:06;;;;;;;3.42;1.10;;;15.90;93.40;;;;;;10089232;29;20505;-88
2022/07/10 18:09:07;;;;;;;1.58;0.90;;;15.80;93.70;;;;;;10074134;29;20037;-90
2022/07/10 18:14:07;;;;;;;3.08;1.52;;;15.70;94.00;;;;;;10098361;29;20040;-87
2022/07/10 18:19:09;;;;;;;3.25;0.98;;;15.60;94.30;;;;;;10093259;29;20040;-88
2022/07/10 18:24:16;;;;;;;4.30;1.60;;;15.60;94.60;;;;;;10087554;29;20389;-86
2022/07/10 18:29:17;;;;;;;3.45;1.75;;;15.50;95.10;;;;;;10094784;29;20331;-87
2022/07/10 18:34:27;;;;;;;5.00;1.90;;;15.40;95.20;;;;;;10087456;29;20097;-87
2022/07/10 18:39:29;;;;;;;4.25;1.92;;;15.40;95.70;;;;;;10086695;29;20060;-88
2022/07/10 18:44:31;;;;;;;6.43;2.47;;;15.30;96.10;;;;;;10099322;29;20067;-86
2022/07/10 18:49:31;;;;;;;6.35;3.15;;;15.30;96.10;;;;;;10095665;29;20037;-86
2022/07/10 18:54:32;;;;;;;6.25;2.38;;;15.20;96.40;;;;;;10087454;29;20049;-89
2022/07/10 18:59:34;;;;;;;3.78;2.78;;;15.20;97.60;;;;;;10102916;29;20557;-87
2022/07/10 19:04:34;;;;;;;17.05;8.05;;;15.10;98.20;;;;;;10082936;29;20040;-86
2022/07/10 19:09:35;;;;;;;8.35;3.30;;;14.90;99.80;;;;;;10098545;29;20065;-88
2022/07/10 19:14:36;;;;;;;12.48;7.18;;;14.60;99.90;;;;;;10074442;29;20055;-88
2022/07/10 19:19:37;;;;;;;21.25;11.38;;;14.40;99.90;;;;;;10086611;29;20442;-87
2022/07/10 19:24:39;;;;;;;28.92;11.38;;;14.20;99.90;;;;;;10073878;29;20041;-86
2022/07/10 19:29:39;;;;;;;33.50;16.30;;;14.10;99.90;;;;;;10067595;29;20073;-86
2022/07/10 19:34:41;;;;;;;158.43;62.78;;;13.90;99.90;;;;;;10092490;29;20044;-90
2022/07/10 19:39:42;;;;;;;593.30;128.32;;;13.90;99.90;;;;;;10096388;29;20119;-88
2022/07/10 19:44:43;;;;;;;48.10;26.50;;;13.80;99.90;;;;;;10096853;29;20036;-89
2022/07/10 19:49:44;;;;;;;11.40;5.13;;;13.90;99.90;;;;;;10080119;29;20044;-90
2022/07/10 19:54:45;;;;;;;40.97;20.35;;;14.00;99.90;;;;;;10080086;29;20129;-88
2022/07/10 19:59:46;;;;;;;11.95;5.28;;;14.10;99.90;;;;;;10088420;29;20402;-89
2022/07/10 20:04:46;;;;;;;4.78;2.67;;;14.00;99.90;;;;;;10093645;29;20111;-88
2022/07/10 20:09:47;;;;;;;9.15;4.03;;;14.10;99.90;;;;;;10083844;29;20093;-84
2022/07/10 20:15:28;;;;;;;21.52;7.88;;;14.20;99.90;;;;;;10082511;29;20049;-87
2022/07/10 20:20:28;;;;;;;8.50;3.42;;;14.20;99.90;;;;;;10084298;29;20097;-86
2022/07/10 20:25:29;;;;;;;8.27;3.10;;;14.20;99.90;;;;;;10075128;29;20105;-87
2022/07/10 20:30:30;;;;;;;8.27;3.80;;;14.30;99.90;;;;;;10081861;29;20043;-86
2022/07/10 20:35:37;;;;;;;5.97;2.20;;;14.30;99.90;;;;;;10082611;29;20025;-88
2022/07/10 20:40:38;;;;;;;4.55;2.17;;;14.20;99.90;;;;;;10071592;29;20088;-86
2022/07/10 20:45:38;;;;;;;3.75;1.92;;;14.20;99.90;;;;;;10083366;29;20037;-88
2022/07/10 20:50:39;;;;;;;6.88;1.92;;;14.30;99.90;;;;;;10069958;29;20062;-87
2022/07/10 20:55:40;;;;;;;2.70;1.55;;;14.20;99.90;;;;;;10070422;29;20097;-89
2022/07/10 21:00:42;;;;;;;4.38;1.85;;;13.70;99.90;;;;;;10084196;29;20057;-88
2022/07/10 21:05:43;;;;;;;4.15;2.08;;;13.30;99.90;;;;;;10054201;29;20045;-88
2022/07/10 21:10:44;;;;;;;5.55;1.88;;;13.10;99.90;;;;;;10055498;29;20026;-89
2022/07/10 21:15:46;;;;;;;3.90;1.90;;;12.90;99.90;;;;;;10074890;29;20036;-91
2022/07/10 21:20:47;;;;;;;3.95;2.10;;;12.90;99.90;;;;;;10062992;29;20139;-90
2022/07/10 21:25:48;;;;;;;3.13;2.05;;;12.90;99.90;;;;;;10055892;29;20025;-88
2022/07/10 21:30:49;;;;;;;4.45;1.90;;;12.80;99.90;;;;;;10095723;29;20037;-88
2022/07/10 21:35:50;;;;;;;5.00;2.28;;;12.90;99.90;;;;;;10103887;29;20882;-89
2022/07/10 21:40:50;;;;;;;5.93;2.00;;;12.90;99.90;;;;;;10084067;29;20044;-90
2022/07/10 21:45:51;;;;;;;3.95;2.25;;;13.00;99.90;;;;;;10085641;29;20049;-88
2022/07/10 21:50:52;;;;;;;3.60;1.70;;;13.00;99.90;;;;;;10085730;29;20517;-89
2022/07/10 21:55:53;;;;;;;3.95;1.45;;;13.10;99.90;;;;;;10090402;29;20033;-89
2022/07/10 22:00:53;;;;;;;4.00;1.95;;;13.10;99.90;;;;;;10098103;29;20057;-89
2022/07/10 22:05:54;;;;;;;5.88;2.38;;;13.10;99.90;;;;;;10094219;29;20067;-89
2022/07/10 22:10:55;;;;;;;4.25;2.35;;;13.20;99.90;;;;;;10092208;29;20029;-88
2022/07/10 22:15:56;;;;;;;5.53;2.50;;;13.20;99.90;;;;;;10086352;29;20029;-87
2022/07/10 22:20:57;;;;;;;6.80;2.53;;;13.30;99.90;;;;;;10097655;29;20056;-92
2022/07/10 22:25:58;;;;;;;3.78;2.13;;;13.20;99.90;;;;;;10109452;29;20039;-87
2022/07/10 22:31:16;;;;;;;4.30;1.98;;;13.20;99.90;;;;;;10099625;29;20033;-88
2022/07/10 22:36:17;;;;;;;4.45;1.63;;;13.20;99.90;;;;;;10108640;29;20037;-88
2022/07/10 22:41:18;;;;;;;2.75;1.90;;;13.10;99.90;;;;;;10099388;29;20025;-87
2022/07/10 22:46:19;;;;;;;2.47;1.65;;;13.10;99.90;;;;;;10085772;29;20047;-89
2022/07/10 22:51:20;;;;;;;4.78;1.90;;;13.10;99.90;;;;;;10086085;29;20544;-89
2022/07/10 22:56:21;;;;;;;2.80;1.30;;;13.20;99.90;;;;;;10091777;29;20064;-89
2022/07/10 23:01:21;;;;;;;2.63;1.17;;;13.20;99.90;;;;;;10116677;23;20068;-89
2022/07/10 23:06:22;;;;;;;2.80;1.05;;;13.20;99.90;;;;;;10132282;29;20107;-89
2022/07/10 23:11:23;;;;;;;1.75;1.38;;;13.20;99.90;;;;;;10108006;29;20581;-89
2022/07/10 23:16:24;;;;;;;3.50;1.30;;;13.20;99.90;;;;;;10079516;29;20501;-89
2022/07/10 23:21:25;;;;;;;2.58;1.27;;;13.30;99.90;;;;;;10075260;29;20033;-89
2022/07/10 23:26:26;;;;;;;1.77;1.20;;;13.20;99.90;;;;;;10091645;29;20409;-88
2022/07/10 23:31:27;;;;;;;7.68;1.70;;;13.30;99.90;;;;;;10073736;29;20037;-89
2022/07/10 23:36:27;;;;;;;6.07;1.63;;;13.10;99.90;;;;;;10072481;29;20502;-89
2022/07/10 23:41:28;;;;;;;6.03;1.52;;;13.00;99.90;;;;;;10072838;29;20081;-90
2022/07/10 23:46:28;;;;;;;3.35;1.70;;;12.90;99.90;;;;;;10072849;29;20052;-88
2022/07/10 23:51:29;;;;;;;3.72;2.03;;;12.80;99.90;;;;;;10071615;29;20707;-89
2022/07/10 23:56:29;;;;;;;6.30;1.83;;;12.80;99.90;;;;;;10084172;29;20047;-90
